Time;durP1;ratioP1;P1;durP2;ratioP2;P2;SDS_P1;SDS_P2;PMS_P1;PMS_P2;Temp;Humidity;BMP_temperature;BMP_pressure;BME280_temperature;BME280_humidity;BME280_pressure;Samples;Min_cycle;Max_cycle;Signal;HPM_P1;HPM_P2
2022/09/04 00:00:17;;;;;;;3.67;2.47;;;;;;;;;;8281483;28;20109;-72
2022/09/04 00:04:27;;;;;;;3.88;2.67;;;;;;;;;;8283635;28;20151;-71
2022/09/04 00:08:28;;;;;;;2.67;2.47;;;;;;;;;;8268738;28;20070;-71
2022/09/04 00:12:32;;;;;;;2.78;2.33;;;;;;;;;;8283818;28;20075;-72
2022/09/04 00:16:41;;;;;;;2.88;2.50;;;;;;;;;;8282816;28;20041;-71
2022/09/04 00:20:46;;;;;;;3.17;2.47;;;;;;;;;;8282437;28;20402;-72
2022/09/04 00:25:06;;;;;;;2.30;2.20;;;;;;;;;;8283700;28;20022;-71
2022/09/04 00:29:13;;;;;;;2.55;2.00;;;;;;;;;;8284483;28;20702;-71
2022/09/04 00:33:16;;;;;;;2.13;1.75;;;;;;;;;;8282415;28;20140;-71
2022/09/04 00:37:20;;;;;;;3.20;2.70;;;;;;;;;;8281483;28;20017;-72
2022/09/04 00:41:23;;;;;;;3.10;2.30;;;;;;;;;;8282249;28;20021;-72
2022/09/04 00:45:26;;;;;;;2.47;2.27;;;;;;;;;;8282550;28;20054;-72
2022/09/04 00:49:44;;;;;;;2.80;2.60;;;;;;;;;;8283853;28;20080;-71
2022/09/04 00:54:03;;;;;;;2.90;2.58;;;;;;;;;;8258458;28;20033;-72
2022/09/04 00:58:09;;;;;;;2.95;2.50;;;;;;;;;;8274705;28;20048;-72
2022/09/04 01:02:19;;;;;;;2.22;2.13;;;;;;;;;;8269773;28;20491;-72
2022/09/04 01:06:30;;;;;;;3.30;2.03;;;;;;;;;;8257700;28;20022;-71
2022/09/04 01:10:42;;;;;;;2.60;2.38;;;;;;;;;;8281323;28;20041;-71
2022/09/04 01:14:49;;;;;;;2.10;1.90;;;;;;;;;;8283360;28;20164;-71
2022/09/04 01:18:57;;;;;;;2.10;2.00;;;;;;;;;;8282406;28;20045;-71
2022/09/04 01:23:00;;;;;;;1.85;1.75;;;;;;;;;;8283125;28;20029;-72
2022/09/04 01:27:23;;;;;;;1.90;1.80;;;;;;;;;;8284523;28;20025;-72
2022/09/04 01:31:30;;;;;;;1.97;1.87;;;;;;;;;;8249274;28;20088;-72
2022/09/04 01:35:51;;;;;;;4.95;2.50;;;;;;;;;;8286085;28;20347;-72
2022/09/04 01:40:17;;;;;;;3.08;2.50;;;;;;;;;;8282445;28;20064;-72
2022/09/04 01:44:17;;;;;;;4.30;3.80;;;;;;;;;;8285522;28;20026;-72
2022/09/04 01:48:22;;;;;;;7.10;4.73;;;;;;;;;;8273820;28;20594;-72
2022/09/04 01:52:37;;;;;;;10.82;6.82;;;;;;;;;;8281878;28;20053;-72
2022/09/04 01:56:47;;;;;;;7.40;6.30;;;;;;;;;;8283756;28;20018;-72
2022/09/04 02:00:53;;;;;;;8.07;6.20;;;;;;;;;;8261688;28;20473;-71
2022/09/04 02:05:05;;;;;;;10.25;7.35;;;;;;;;;;8284260;28;20057;-71
2022/09/04 02:09:09;;;;;;;11.63;7.97;;;;;;;;;;8283717;28;20048;-71
2022/09/04 02:13:11;;;;;;;;;;;;;;;;;;8269826;28;20103;-71
2022/09/04 02:17:17;;;;;;;13.30;8.63;;;;;;;;;;8284962;28;20811;-72
2022/09/04 02:21:26;;;;;;;11.30;8.52;;;;;;;;;;8287383;28;20025;-71
2022/09/04 02:25:29;;;;;;;10.77;7.80;;;;;;;;;;8285086;28;20440;-71
2022/09/04 02:29:38;;;;;;;12.75;8.27;;;;;;;;;;8287086;28;20056;-71
2022/09/04 02:33:57;;;;;;;12.55;7.57;;;;;;;;;;8284168;28;20041;-71
2022/09/04 02:38:11;;;;;;;12.52;8.05;;;;;;;;;;8286638;28;20044;-71
2022/09/04 02:42:38;;;;;;;11.07;7.40;;;;;;;;;;8287674;28;20028;-71
2022/09/04 02:46:38;;;;;;;8.20;6.70;;;;;;;;;;8284341;28;20049;-71
2022/09/04 02:50:58;;;;;;;9.82;6.95;;;;;;;;;;8285672;28;20057;-71
2022/09/04 02:55:17;;;;;;;8.88;6.72;;;;;;;;;;8288647;28;20027;-71
2022/09/04 02:59:20;;;;;;;8.23;6.35;;;;;;;;;;8285501;28;20136;-71
2022/09/04 03:03:26;;;;;;;9.50;6.47;;;;;;;;;;8283514;28;20030;-72
2022/09/04 03:07:38;;;;;;;13.32;7.40;;;;;;;;;;8283077;28;20033;-71
2022/09/04 03:12:02;;;;;;;7.22;5.65;;;;;;;;;;8285184;28;20652;-71
2022/09/04 03:16:11;;;;;;;9.30;6.15;;;;;;;;;;8272211;28;20095;-71
2022/09/04 03:20:21;;;;;;;8.35;6.40;;;;;;;;;;8281872;28;20032;-72
2022/09/04 03:24:29;;;;;;;7.88;5.75;;;;;;;;;;8285517;28;20713;-72
2022/09/04 03:28:38;;;;;;;6.80;5.57;;;;;;;;;;8283922;28;20202;-72
2022/09/04 03:32:38;;;;;;;8.20;5.57;;;;;;;;;;8282550;28;20984;-71
2022/09/04 03:36:47;;;;;;;10.35;6.78;;;;;;;;;;8284286;28;20099;-72
2022/09/04 03:40:53;;;;;;;6.68;5.95;;;;;;;;;;8285615;28;20084;-72
2022/09/04 03:45:03;;;;;;;4.93;4.35;;;;;;;;;;8285393;28;20033;-71
2022/09/04 03:49:04;;;;;;;7.03;4.57;;;;;;;;;;8273618;28;20037;-72
2022/09/04 03:53:23;;;;;;;6.93;5.35;;;;;;;;;;8282251;28;20025;-72
2022/09/04 03:57:45;;;;;;;4.57;4.18;;;;;;;;;;8260238;28;20036;-72
2022/09/04 04:02:12;;;;;;;6.13;5.10;;;;;;;;;;8283163;28;20030;-71
2022/09/04 04:06:17;;;;;;;6.90;5.95;;;;;;;;;;8278156;28;20084;-72
2022/09/04 04:10:23;;;;;;;4.85;4.43;;;;;;;;;;8267020;28;20030;-72
2022/09/04 04:14:37;;;;;;;14.13;7.88;;;;;;;;;;8280885;28;20343;-72
2022/09/04 04:18:45;;;;;;;48.72;7.75;;;;;;;;;;8272061;28;20916;-71
2022/09/04 04:22:50;;;;;;;199.52;6.88;;;;;;;;;;8281565;28;20049;-71
2022/09/04 04:26:56;;;;;;;53.17;4.00;;;;;;;;;;8272679;28;20032;-72
2022/09/04 04:31:15;;;;;;;52.40;3.35;;;;;;;;;;8279854;28;20676;-71
2022/09/04 04:35:18;;;;;;;11.90;3.05;;;;;;;;;;8284251;28;20795;-72
2022/09/04 04:39:25;;;;;;;275.15;7.43;;;;;;;;;;8281425;28;20031;-72
2022/09/04 04:43:32;;;;;;;63.92;3.85;;;;;;;;;;8280392;28;20117;-71
2022/09/04 04:47:58;;;;;;;66.22;3.53;;;;;;;;;;8268102;28;20798;-71
2022/09/04 04:52:17;;;;;;;52.55;3.33;;;;;;;;;;8279125;28;20030;-72
2022/09/04 04:56:22;;;;;;;23.02;2.30;;;;;;;;;;8281978;28;20036;-72
2022/09/04 05:00:26;;;;;;;85.43;3.05;;;;;;;;;;8280948;28;20511;-72
2022/09/04 05:04:28;;;;;;;8.05;1.70;;;;;;;;;;8282046;28;20033;-72
2022/09/04 05:08:37;;;;;;;30.65;1.90;;;;;;;;;;8279225;28;20438;-72
2022/09/04 05:12:37;;;;;;;27.33;1.70;;;;;;;;;;8282992;28;20641;-72
2022/09/04 05:16:51;;;;;;;1.40;1.30;;;;;;;;;;8281042;28;20124;-72
2022/09/04 05:21:06;;;;;;;16.08;1.50;;;;;;;;;;8264899;28;20897;-72
2022/09/04 05:25:14;;;;;;;1.35;1.20;;;;;;;;;;8281047;28;20033;-71
2022/09/04 05:29:18;;;;;;;35.28;1.70;;;;;;;;;;8263586;28;20037;-72
2022/09/04 05:33:28;;;;;;;1.58;1.23;;;;;;;;;;8279761;28;20038;-73
2022/09/04 05:37:49;;;;;;;2.97;1.20;;;;;;;;;;8281268;28;20108;-72
2022/09/04 05:41:53;;;;;;;1.23;1.23;;;;;;;;;;8281896;28;20378;-72
2022/09/04 05:46:12;;;;;;;1.58;1.48;;;;;;;;;;8280314;28;20033;-72
2022/09/04 05:50:12;;;;;;;1.45;1.40;;;;;;;;;;8271336;28;20017;-72
2022/09/04 05:54:33;;;;;;;1.38;1.30;;;;;;;;;;8286622;28;20032;-72
2022/09/04 05:58:55;;;;;;;10.63;1.70;;;;;;;;;;8249506;28;20730;-72
2022/09/04 06:02:55;;;;;;;10.50;1.58;;;;;;;;;;8287684;28;20086;-71
2022/09/04 06:07:07;;;;;;;8.82;1.77;;;;;;;;;;8287216;28;20044;-71
2022/09/04 06:11:25;;;;;;;18.23;2.10;;;;;;;;;;8286120;28;20108;-72
2022/09/04 06:15:37;;;;;;;95.07;3.50;;;;;;;;;;8285616;28;20549;-72
2022/09/04 06:19:40;;;;;;;10.23;2.30;;;;;;;;;;8287811;28;20770;-71
2022/09/04 06:23:50;;;;;;;38.17;2.80;;;;;;;;;;8284675;28;20025;-71
2022/09/04 06:27:59;;;;;;;11.73;2.13;;;;;;;;;;8288448;28;20116;-72
2022/09/04 06:32:28;;;;;;;11.57;2.28;;;;;;;;;;8282167;28;20584;-72
2022/09/04 06:36:52;;;;;;;22.63;2.50;;;;;;;;;;8269444;28;20132;-71
2022/09/04 06:40:52;;;;;;;61.03;3.77;;;;;;;;;;8284784;28;20935;-72
2022/09/04 06:45:08;;;;;;;31.83;2.90;;;;;;;;;;8273322;28;20651;-72
2022/09/04 06:49:28;;;;;;;2.85;2.65;;;;;;;;;;8284268;28;20877;-72
2022/09/04 06:53:41;;;;;;;9.43;2.22;;;;;;;;;;8284699;28;20024;-71
2022/09/04 06:57:50;;;;;;;18.52;2.53;;;;;;;;;;8286566;28;20021;-72
2022/09/04 07:02:06;;;;;;;10.85;2.38;;;;;;;;;;8282854;28;20410;-72
2022/09/04 07:06:06;;;;;;;7.20;2.10;;;;;;;;;;8285537;28;20500;-72
2022/09/04 07:10:09;;;;;;;4.68;2.05;;;;;;;;;;8283914;28;20140;-72
2022/09/04 07:14:16;;;;;;;6.80;2.43;;;;;;;;;;8275764;28;20055;-72
2022/09/04 07:18:22;;;;;;;13.88;2.80;;;;;;;;;;8279866;28;20666;-71
2022/09/04 07:22:40;;;;;;;3.15;2.95;;;;;;;;;;8282982;28;20040;-71
2022/09/04 07:26:46;;;;;;;3.83;2.90;;;;;;;;;;8284438;28;20033;-71
2022/09/04 07:30:57;;;;;;;4.40;2.97;;;;;;;;;;8281695;28;20136;-72
2022/09/04 07:35:06;;;;;;;3.28;2.97;;;;;;;;;;8283965;28;20118;-72
2022/09/04 07:39:18;;;;;;;9.57;3.38;;;;;;;;;;8271533;28;20065;-73
2022/09/04 07:43:22;;;;;;;11.40;3.58;;;;;;;;;;8283389;28;20580;-73
2022/09/04 07:47:41;;;;;;;4.75;3.90;;;;;;;;;;8284073;28;20041;-73
2022/09/04 07:51:44;;;;;;;26.75;4.40;;;;;;;;;;8262096;28;20022;-73
2022/09/04 07:55:48;;;;;;;13.90;4.50;;;;;;;;;;8280729;28;20034;-73
2022/09/04 08:00:01;;;;;;;9.27;4.47;;;;;;;;;;8270038;28;20116;-72
2022/09/04 08:04:13;;;;;;;19.45;4.70;;;;;;;;;;8282575;28;20038;-74
2022/09/04 08:08:38;;;;;;;5.30;3.80;;;;;;;;;;8285001;28;20079;-72
2022/09/04 08:12:38;;;;;;;8.48;4.30;;;;;;;;;;8283909;28;20025;-72
2022/09/04 08:16:38;;;;;;;6.13;5.53;;;;;;;;;;8282165;28;20050;-71
2022/09/04 08:20:42;;;;;;;5.63;4.95;;;;;;;;;;8281443;28;20030;-71
2022/09/04 08:24:49;;;;;;;5.80;5.30;;;;;;;;;;8259700;28;20052;-71
2022/09/04 08:28:55;;;;;;;4.95;4.55;;;;;;;;;;8282003;28;20107;-70
2022/09/04 08:33:11;;;;;;;6.50;5.70;;;;;;;;;;8281893;28;20104;-78
2022/09/04 08:37:23;;;;;;;5.43;4.93;;;;;;;;;;8281554;28;20757;-78
2022/09/04 08:41:25;;;;;;;4.38;4.03;;;;;;;;;;8282097;28;20139;-78
2022/09/04 08:45:34;;;;;;;6.88;6.25;;;;;;;;;;8282711;28;20041;-78
2022/09/04 08:49:54;;;;;;;5.57;5.10;;;;;;;;;;8284229;28;20026;-79
2022/09/04 08:54:04;;;;;;;6.80;6.20;;;;;;;;;;8281698;28;20073;-79
2022/09/04 08:58:22;;;;;;;6.75;6.15;;;;;;;;;;8283817;28;20021;-78
2022/09/04 09:02:41;;;;;;;6.90;6.20;;;;;;;;;;8284491;28;20686;-79
2022/09/04 09:07:00;;;;;;;5.80;5.30;;;;;;;;;;8281924;28;20132;-79
2022/09/04 09:11:19;;;;;;;6.60;5.20;;;;;;;;;;8272900;28;20346;-79
2022/09/04 09:15:27;;;;;;;6.68;6.00;;;;;;;;;;8280987;28;20041;-75
2022/09/04 09:19:27;;;;;;;5.93;5.32;;;;;;;;;;8281683;28;20115;-70
2022/09/04 09:23:36;;;;;;;7.80;7.00;;;;;;;;;;8278797;28;20029;-70
2022/09/04 09:27:40;;;;;;;6.07;5.53;;;;;;;;;;8288960;28;20076;-71
2022/09/04 09:31:46;;;;;;;6.22;5.63;;;;;;;;;;8286799;28;20387;-70
2022/09/04 09:35:51;;;;;;;7.38;5.65;;;;;;;;;;8288712;28;20148;-70
2022/09/04 09:40:01;;;;;;;7.63;6.00;;;;;;;;;;8287293;28;20068;-71
2022/09/04 09:44:13;;;;;;;7.10;6.30;;;;;;;;;;8289907;28;20025;-72
2022/09/04 09:48:27;;;;;;;6.13;5.63;;;;;;;;;;8273368;28;20136;-71
2022/09/04 09:52:27;;;;;;;8.73;6.00;;;;;;;;;;8286200;28;20057;-72
2022/09/04 09:56:40;;;;;;;6.85;6.28;;;;;;;;;;8290558;28;20033;-71
2022/09/04 10:00:58;;;;;;;7.68;6.88;;;;;;;;;;8286449;28;20474;-71
2022/09/04 10:04:58;;;;;;;6.53;6.03;;;;;;;;;;8288825;28;20037;-71
2022/09/04 10:09:05;;;;;;;5.93;5.47;;;;;;;;;;8286158;28;20092;-71
2022/09/04 10:13:23;;;;;;;5.45;5.05;;;;;;;;;;8285720;28;20051;-71
2022/09/04 10:17:46;;;;;;;6.85;6.35;;;;;;;;;;8280727;28;20041;-71
2022/09/04 10:22:01;;;;;;;7.10;6.40;;;;;;;;;;8287730;28;20029;-71
2022/09/04 10:26:14;;;;;;;5.55;5.13;;;;;;;;;;8286156;28;20024;-71
2022/09/04 10:30:17;;;;;;;6.43;5.13;;;;;;;;;;8284440;28;20022;-71
2022/09/04 10:34:33;;;;;;;4.38;4.05;;;;;;;;;;8283834;28;20017;-71
2022/09/04 10:38:36;;;;;;;5.32;3.92;;;;;;;;;;8284125;28;20029;-71
2022/09/04 10:42:55;;;;;;;4.90;4.40;;;;;;;;;;8272058;28;20167;-72
2022/09/04 10:47:04;;;;;;;3.60;3.30;;;;;;;;;;8284183;28;20118;-71
2022/09/04 10:51:19;;;;;;;3.60;3.30;;;;;;;;;;8284545;28;20033;-71
2022/09/04 10:55:29;;;;;;;3.67;3.38;;;;;;;;;;8285646;28;20115;-71
2022/09/04 10:59:56;;;;;;;3.50;3.20;;;;;;;;;;8272281;28;20049;-71
2022/09/04 11:04:15;;;;;;;3.53;2.17;;;;;;;;;;8286245;28;20045;-71
2022/09/04 11:08:35;;;;;;;1.90;1.80;;;;;;;;;;8254716;28;20084;-72
2022/09/04 11:12:38;;;;;;;3.13;1.88;;;;;;;;;;8281067;28;20022;-71
2022/09/04 11:16:55;;;;;;;3.00;1.67;;;;;;;;;;8280872;28;20551;-71
2022/09/04 11:21:28;;;;;;;1.90;1.80;;;;;;;;;;8281045;28;20021;-71
2022/09/04 11:25:36;;;;;;;2.30;2.10;;;;;;;;;;8214398;28;20561;-70
2022/09/04 11:29:46;;;;;;;2.10;2.00;;;;;;;;;;8281573;28;20056;-72
2022/09/04 11:33:47;;;;;;;4.57;2.40;;;;;;;;;;8280415;28;20029;-71
2022/09/04 11:37:47;;;;;;;2.10;1.90;;;;;;;;;;8281248;28;20143;-71
2022/09/04 11:42:07;;;;;;;2.97;2.10;;;;;;;;;;8270770;28;20087;-70
2022/09/04 11:46:20;;;;;;;1.60;1.50;;;;;;;;;;8279697;28;20177;-71
2022/09/04 11:50:35;;;;;;;1.85;1.75;;;;;;;;;;8281540;28;20029;-71
2022/09/04 11:54:45;;;;;;;3.03;2.10;;;;;;;;;;8281396;28;20956;-71
2022/09/04 11:59:04;;;;;;;4.93;2.13;;;;;;;;;;8281530;28;20037;-71
2022/09/04 12:03:25;;;;;;;2.00;1.40;;;;;;;;;;8279815;28;20033;-71
2022/09/04 12:07:32;;;;;;;2.47;1.67;;;;;;;;;;8280062;28;20033;-71
2022/09/04 12:11:46;;;;;;;1.98;1.60;;;;;;;;;;8282712;28;20104;-71
2022/09/04 12:15:54;;;;;;;1.48;1.38;;;;;;;;;;8279263;28;20091;-71
2022/09/04 12:20:03;;;;;;;1.48;1.38;;;;;;;;;;8279062;28;20471;-71
2022/09/04 12:24:06;;;;;;;3.35;1.40;;;;;;;;;;8278357;28;20030;-71
2022/09/04 12:28:25;;;;;;;1.50;1.42;;;;;;;;;;8279826;28;20877;-71
2022/09/04 12:32:28;;;;;;;1.70;1.60;;;;;;;;;;8278946;28;20582;-71
2022/09/04 12:36:28;;;;;;;;;;;;;;;;;;8280433;28;20666;-71
2022/09/04 12:40:28;;;;;;;2.90;2.47;;;;;;;;;;8277436;28;19917;-71
2022/09/04 12:44:35;;;;;;;3.65;3.20;;;;;;;;;;8254842;28;20025;-71
2022/09/04 12:48:54;;;;;;;1.90;1.80;;;;;;;;;;8278446;28;20047;-71
2022/09/04 12:53:02;;;;;;;1.90;1.75;;;;;;;;;;8276864;28;20079;-71
2022/09/04 12:57:21;;;;;;;2.65;1.50;;;;;;;;;;8280389;28;20026;-71
2022/09/04 13:01:28;;;;;;;3.90;2.60;;;;;;;;;;8277629;28;20037;-71
2022/09/04 13:05:28;;;;;;;1.67;1.58;;;;;;;;;;8279222;28;20037;-71
2022/09/04 13:09:51;;;;;;;4.80;1.45;;;;;;;;;;8279782;28;20026;-71
2022/09/04 13:13:52;;;;;;;;;;;;;;;;;;8278771;28;20758;-71
2022/09/04 13:18:02;;;;;;;1.88;1.25;;;;;;;;;;8279156;28;19924;-71
2022/09/04 13:22:18;;;;;;;1.58;1.48;;;;;;;;;;8278362;28;20025;-71
2022/09/04 13:26:33;;;;;;;1.30;1.20;;;;;;;;;;8278546;28;20025;-71
2022/09/04 13:30:37;;;;;;;1.15;1.10;;;;;;;;;;8276113;28;20483;-70
2022/09/04 13:35:08;;;;;;;1.20;1.10;;;;;;;;;;8279768;28;20024;-71
2022/09/04 13:39:20;;;;;;;1.13;1.13;;;;;;;;;;8238286;28;20033;-70
2022/09/04 13:43:32;;;;;;;1.42;1.20;;;;;;;;;;8278191;28;20577;-71
2022/09/04 13:47:49;;;;;;;1.43;1.30;;;;;;;;;;8277143;28;20151;-71
2022/09/04 13:52:01;;;;;;;1.67;1.25;;;;;;;;;;8277429;28;20105;-71
2022/09/04 13:56:11;;;;;;;1.20;1.10;;;;;;;;;;8277950;28;20276;-71
2022/09/04 14:00:13;;;;;;;2.75;1.17;;;;;;;;;;8278337;28;20034;-71
2022/09/04 14:04:24;;;;;;;1.10;1.00;;;;;;;;;;8278491;28;20155;-71
2022/09/04 14:08:30;;;;;;;2.83;1.25;;;;;;;;;;8277119;28;20042;-71
2022/09/04 14:12:50;;;;;;;1.63;1.10;;;;;;;;;;8283441;28;20658;-71
2022/09/04 14:16:54;;;;;;;1.85;1.10;;;;;;;;;;8284263;28;20041;-71
2022/09/04 14:20:58;;;;;;;1.50;1.23;;;;;;;;;;8281514;28;20691;-71
2022/09/04 14:25:14;;;;;;;1.15;1.10;;;;;;;;;;8283883;28;20037;-71
2022/09/04 14:29:14;;;;;;;1.45;1.10;;;;;;;;;;8282511;28;20043;-71
2022/09/04 14:33:27;;;;;;;1.55;1.30;;;;;;;;;;8283166;28;20116;-71
2022/09/04 14:37:28;;;;;;;1.10;1.10;;;;;;;;;;8283835;28;20912;-71
2022/09/04 14:41:34;;;;;;;1.20;1.10;;;;;;;;;;8284691;28;20806;-70
2022/09/04 14:45:51;;;;;;;1.30;1.20;;;;;;;;;;8282636;28;20045;-71
2022/09/04 14:49:54;;;;;;;1.70;1.30;;;;;;;;;;8281509;28;20041;-71
2022/09/04 14:53:55;;;;;;;2.63;1.30;;;;;;;;;;8281505;28;21069;-71
2022/09/04 14:58:18;;;;;;;1.30;1.20;;;;;;;;;;8284025;28;20158;-70
2022/09/04 15:02:21;;;;;;;2.72;1.30;;;;;;;;;;8280635;28;20152;-70
2022/09/04 15:06:44;;;;;;;2.55;1.33;;;;;;;;;;8279962;28;20319;-71
2022/09/04 15:10:49;;;;;;;3.05;1.17;;;;;;;;;;8281326;28;20632;-71
2022/09/04 15:14:52;;;;;;;1.38;1.27;;;;;;;;;;8282430;28;20042;-70
2022/09/04 15:18:55;;;;;;;1.30;1.20;;;;;;;;;;8282222;28;20033;-71
2022/09/04 15:22:58;;;;;;;1.40;1.30;;;;;;;;;;8280646;28;20032;-71
2022/09/04 15:27:11;;;;;;;1.27;1.17;;;;;;;;;;8281934;28;20722;-70
2022/09/04 15:31:15;;;;;;;2.60;1.40;;;;;;;;;;8281515;28;20029;-70
2022/09/04 15:35:20;;;;;;;1.45;1.30;;;;;;;;;;8285731;28;20018;-70
2022/09/04 15:39:32;;;;;;;1.02;1.02;;;;;;;;;;8281595;28;20025;-70
2022/09/04 15:43:40;;;;;;;1.33;1.23;;;;;;;;;;8281999;28;20476;-71
2022/09/04 15:47:43;;;;;;;1.55;1.30;;;;;;;;;;8280204;28;20040;-71
2022/09/04 15:52:09;;;;;;;1.42;1.17;;;;;;;;;;8280776;28;20034;-71
2022/09/04 15:56:15;;;;;;;1.92;1.50;;;;;;;;;;8280007;28;20040;-71
2022/09/04 16:00:19;;;;;;;1.38;1.27;;;;;;;;;;8279811;28;20508;-72
2022/09/04 16:04:41;;;;;;;1.63;1.30;;;;;;;;;;8278129;28;20256;-71
2022/09/04 16:08:51;;;;;;;1.65;1.23;;;;;;;;;;8279935;28;20111;-71
2022/09/04 16:13:04;;;;;;;1.30;1.20;;;;;;;;;;8282488;28;20123;-71
2022/09/04 16:17:04;;;;;;;;;;;;;;;;;;8281618;28;20172;-71
2022/09/04 16:21:24;;;;;;;1.30;1.20;;;;;;;;;;8279135;28;20664;-71
2022/09/04 16:25:30;;;;;;;1.98;1.50;;;;;;;;;;8267829;28;20076;-71
2022/09/04 16:29:39;;;;;;;1.55;1.45;;;;;;;;;;8279325;28;20029;-71
2022/09/04 16:33:50;;;;;;;1.85;1.38;;;;;;;;;;8279376;28;20035;-71
2022/09/04 16:37:55;;;;;;;1.40;1.30;;;;;;;;;;8280966;28;20692;-71
2022/09/04 16:42:03;;;;;;;2.70;1.40;;;;;;;;;;8277024;28;20018;-73
2022/09/04 16:46:24;;;;;;;1.73;1.40;;;;;;;;;;8256948;28;20041;-73
2022/09/04 16:50:27;;;;;;;1.17;1.17;;;;;;;;;;8279004;28;20383;-73
2022/09/04 16:54:30;;;;;;;1.40;1.30;;;;;;;;;;8280050;28;20895;-73
2022/09/04 16:58:38;;;;;;;1.45;1.30;;;;;;;;;;8280701;28;20494;-73
2022/09/04 17:02:49;;;;;;;1.65;1.35;;;;;;;;;;8277517;28;20097;-73
2022/09/04 17:07:03;;;;;;;1.48;1.20;;;;;;;;;;8279415;28;20055;-73
2022/09/04 17:11:03;;;;;;;1.85;1.40;;;;;;;;;;8278070;28;20112;-74
2022/09/04 17:15:15;;;;;;;1.55;1.30;;;;;;;;;;8279948;28;20037;-72
2022/09/04 17:19:15;;;;;;;2.35;1.40;;;;;;;;;;8278453;28;20025;-73
2022/09/04 17:23:30;;;;;;;1.38;1.27;;;;;;;;;;8278913;28;20133;-73
2022/09/04 17:27:39;;;;;;;1.40;1.30;;;;;;;;;;8278364;28;20402;-73
2022/09/04 17:31:56;;;;;;;2.15;1.20;;;;;;;;;;8277742;28;20021;-73
2022/09/04 17:36:02;;;;;;;2.78;1.55;;;;;;;;;;8276852;28;20030;-73
2022/09/04 17:40:25;;;;;;;1.40;1.30;;;;;;;;;;8278180;28;20394;-73
2022/09/04 17:44:26;;;;;;;;;;;;;;;;;;8258868;28;20798;-72
2022/09/04 17:48:28;;;;;;;2.15;1.38;;;;;;;;;;8284573;28;19924;-73
2022/09/04 17:52:35;;;;;;;1.77;1.30;;;;;;;;;;8283352;28;20029;-72
2022/09/04 17:56:40;;;;;;;2.67;1.40;;;;;;;;;;8284123;28;20885;-73
2022/09/04 18:01:02;;;;;;;1.42;1.33;;;;;;;;;;8271711;28;20037;-72
2022/09/04 18:05:20;;;;;;;1.23;1.20;;;;;;;;;;8284624;28;20045;-72
2022/09/04 18:09:45;;;;;;;1.90;1.60;;;;;;;;;;8284270;28;20048;-72
2022/09/04 18:14:16;;;;;;;1.48;1.38;;;;;;;;;;8284314;28;20771;-72
2022/09/04 18:18:17;;;;;;;1.30;1.23;;;;;;;;;;8218410;28;20833;-72
2022/09/04 18:22:27;;;;;;;2.72;1.50;;;;;;;;;;8281401;28;20026;-72
2022/09/04 18:26:33;;;;;;;1.45;1.35;;;;;;;;;;8282307;28;20080;-72
2022/09/04 18:30:44;;;;;;;2.65;1.50;;;;;;;;;;8283699;28;20091;-72
2022/09/04 18:34:47;;;;;;;1.70;1.60;;;;;;;;;;8283932;28;20021;-72
2022/09/04 18:39:03;;;;;;;3.08;1.40;;;;;;;;;;8282195;28;20021;-72
2022/09/04 18:43:06;;;;;;;1.10;1.10;;;;;;;;;;8281549;28;20720;-71
2022/09/04 18:47:13;;;;;;;1.58;1.48;;;;;;;;;;8283900;28;20865;-71
2022/09/04 18:51:16;;;;;;;2.30;1.50;;;;;;;;;;8280633;28;20033;-73
2022/09/04 18:55:27;;;;;;;2.13;1.40;;;;;;;;;;8283175;28;20579;-72
2022/09/04 18:59:34;;;;;;;1.50;1.40;;;;;;;;;;8282917;28;20065;-72
2022/09/04 19:03:50;;;;;;;1.75;1.50;;;;;;;;;;8280349;28;20034;-73
2022/09/04 19:07:53;;;;;;;1.80;1.50;;;;;;;;;;8280783;28;20029;-73
2022/09/04 19:11:55;;;;;;;1.30;1.30;;;;;;;;;;8284455;28;20136;-73
2022/09/04 19:16:09;;;;;;;1.52;1.42;;;;;;;;;;8280118;28;20680;-73
2022/09/04 19:20:12;;;;;;;1.58;1.45;;;;;;;;;;8281585;28;20017;-72
2022/09/04 19:24:24;;;;;;;1.67;1.38;;;;;;;;;;8267520;28;20336;-72
2022/09/04 19:28:27;;;;;;;1.30;1.20;;;;;;;;;;8278140;28;20024;-72
2022/09/04 19:32:32;;;;;;;1.40;1.27;;;;;;;;;;8280226;28;20030;-72
2022/09/04 19:36:32;;;;;;;1.95;1.38;;;;;;;;;;8281239;28;20025;-72
2022/09/04 19:40:42;;;;;;;1.70;1.50;;;;;;;;;;8284622;28;20030;-72
2022/09/04 19:44:53;;;;;;;1.45;1.20;;;;;;;;;;8285124;28;20034;-72
2022/09/04 19:49:02;;;;;;;1.10;1.10;;;;;;;;;;8271502;28;20140;-72
2022/09/04 19:53:08;;;;;;;1.90;1.40;;;;;;;;;;8281358;28;20415;-71
2022/09/04 19:57:23;;;;;;;1.73;1.50;;;;;;;;;;8284453;28;20029;-72
2022/09/04 20:01:26;;;;;;;1.80;1.52;;;;;;;;;;8282614;28;20038;-72
2022/09/04 20:05:28;;;;;;;2.03;1.45;;;;;;;;;;8284732;28;20022;-71
2022/09/04 20:09:36;;;;;;;1.60;1.50;;;;;;;;;;8267793;28;20050;-72
2022/09/04 20:13:42;;;;;;;2.75;1.50;;;;;;;;;;8284460;28;20021;-72
2022/09/04 20:17:45;;;;;;;2.28;1.60;;;;;;;;;;8284093;28;20981;-72
2022/09/04 20:21:59;;;;;;;1.40;1.30;;;;;;;;;;8283180;28;20621;-72
2022/09/04 20:25:59;;;;;;;;;;;;;;;;;;8280978;28;20055;-71
2022/09/04 20:30:03;;;;;;;1.35;1.20;;;;;;;;;;8284731;28;19995;-72
2022/09/04 20:34:08;;;;;;;1.50;1.40;;;;;;;;;;8281690;28;20056;-72
2022/09/04 20:38:18;;;;;;;1.33;1.25;;;;;;;;;;8269958;28;20991;-72
2022/09/04 20:42:21;;;;;;;1.23;1.13;;;;;;;;;;8271585;28;20045;-71
2022/09/04 20:46:27;;;;;;;1.63;1.35;;;;;;;;;;8283457;28;20038;-72
2022/09/04 20:50:33;;;;;;;1.90;1.20;;;;;;;;;;8281657;28;20033;-72
2022/09/04 20:54:34;;;;;;;1.77;1.42;;;;;;;;;;8282917;28;20025;-71
2022/09/04 20:58:37;;;;;;;2.97;1.30;;;;;;;;;;8282626;28;20028;-72
2022/09/04 21:02:37;;;;;;;1.45;1.35;;;;;;;;;;8282127;28;20081;-71
2022/09/04 21:06:37;;;;;;;3.03;1.30;;;;;;;;;;8281524;28;20030;-72
2022/09/04 21:10:52;;;;;;;1.30;1.20;;;;;;;;;;8268606;28;20553;-71
2022/09/04 21:15:06;;;;;;;1.40;1.30;;;;;;;;;;8282881;28;21011;-72
2022/09/04 21:19:06;;;;;;;;;;;;;;;;;;8281963;28;20064;-72
2022/09/04 21:23:07;;;;;;;1.27;1.17;;;;;;;;;;8288870;28;19913;-72
2022/09/04 21:27:16;;;;;;;1.73;1.20;;;;;;;;;;8288862;28;20032;-72
2022/09/04 21:31:35;;;;;;;1.40;1.30;;;;;;;;;;8289336;28;20040;-72
2022/09/04 21:35:49;;;;;;;1.30;1.20;;;;;;;;;;8289540;28;20033;-71
2022/09/04 21:39:49;;;;;;;;;;;;;;;;;;8289416;28;20083;-71
2022/09/04 21:44:01;;;;;;;1.30;1.10;;;;;;;;;;8287959;28;19913;-70
2022/09/04 21:48:16;;;;;;;1.23;1.20;;;;;;;;;;8288375;28;20037;-70
2022/09/04 21:52:17;;;;;;;1.73;1.23;;;;;;;;;;8286741;28;20032;-71
2022/09/04 21:56:17;;;;;;;1.77;1.23;;;;;;;;;;8286931;28;20025;-71
2022/09/04 22:00:19;;;;;;;10.77;1.63;;;;;;;;;;8277451;28;20025;-71
2022/09/04 22:04:37;;;;;;;1.10;1.10;;;;;;;;;;8289235;28;20204;-70
2022/09/04 22:08:38;;;;;;;1.30;1.20;;;;;;;;;;8286995;28;20037;-71
2022/09/04 22:12:53;;;;;;;2.08;1.40;;;;;;;;;;8287221;28;20126;-71
2022/09/04 22:17:02;;;;;;;1.42;1.33;;;;;;;;;;8285236;28;21013;-70
2022/09/04 22:21:23;;;;;;;1.40;1.30;;;;;;;;;;8271993;28;20025;-72
2022/09/04 22:25:26;;;;;;;1.50;1.23;;;;;;;;;;8288307;28;20988;-71
2022/09/04 22:29:49;;;;;;;1.40;1.30;;;;;;;;;;8284416;28;20494;-71
2022/09/04 22:34:08;;;;;;;2.00;1.40;;;;;;;;;;8276361;28;20038;-70
2022/09/04 22:38:27;;;;;;;1.30;1.20;;;;;;;;;;8287720;28;20036;-71
2022/09/04 22:42:46;;;;;;;2.10;1.30;;;;;;;;;;8286838;28;20030;-71
2022/09/04 22:47:24;;;;;;;3.33;1.35;;;;;;;;;;8285130;28;20045;-70
2022/09/04 22:51:32;;;;;;;1.38;1.27;;;;;;;;;;8285727;28;20013;-70
2022/09/04 22:55:51;;;;;;;1.20;1.10;;;;;;;;;;8286282;28;20132;-71
2022/09/04 22:59:51;;;;;;;1.20;1.20;;;;;;;;;;8286696;28;20029;-71
2022/09/04 23:03:57;;;;;;;1.25;1.20;;;;;;;;;;8285390;28;20077;-70
2022/09/04 23:08:18;;;;;;;1.98;1.30;;;;;;;;;;8285711;28;20033;-71
2022/09/04 23:12:37;;;;;;;1.10;1.10;;;;;;;;;;8285869;28;20819;-71
2022/09/04 23:16:44;;;;;;;1.30;1.20;;;;;;;;;;8285282;28;20045;-70
2022/09/04 23:20:52;;;;;;;1.98;1.30;;;;;;;;;;8284445;28;20033;-71
2022/09/04 23:25:12;;;;;;;1.40;1.30;;;;;;;;;;8285286;28;20026;-71
2022/09/04 23:29:12;;;;;;;3.17;1.42;;;;;;;;;;8284689;28;20084;-71
2022/09/04 23:33:27;;;;;;;1.65;1.13;;;;;;;;;;8268636;28;20038;-71
2022/09/04 23:37:45;;;;;;;1.52;1.20;;;;;;;;;;8283634;28;20037;-70
2022/09/04 23:42:04;;;;;;;1.42;1.30;;;;;;;;;;8284638;28;20029;-70
2022/09/04 23:46:31;;;;;;;2.70;1.20;;;;;;;;;;8269957;28;20037;-70
2022/09/04 23:50:42;;;;;;;1.35;1.23;;;;;;;;;;8280205;28;20037;-70
2022/09/04 23:54:48;;;;;;;1.48;1.30;;;;;;;;;;8284635;28;20868;-70
